Time;durP1;ratioP1;P1;durP2;ratioP2;P2;SDS_P1;SDS_P2;PMS_P1;PMS_P2;Temp;Humidity;BMP_temperature;BMP_pressure;BME280_temperature;BME280_humidity;BME280_pressure;Samples;Min_cycle;Max_cycle;Signal;HPM_P1;HPM_P2
2023/12/14 00:01:59;;;;;;;67.60;34.13;;;9.20;99.90;;;;;;5093262;28;20389;-74
2023/12/14 00:04:25;;;;;;;72.57;35.17;;;9.10;99.90;;;;;;5092497;28;20443;-74
2023/12/14 00:06:51;;;;;;;71.78;34.67;;;9.20;99.90;;;;;;5092711;28;20786;-73
2023/12/14 00:09:16;;;;;;;73.93;35.05;;;9.30;99.90;;;;;;5092412;28;20421;-74
2023/12/14 00:11:42;;;;;;;74.38;35.00;;;9.40;99.90;;;;;;5092519;28;20722;-73
2023/12/14 00:14:07;;;;;;;73.20;34.78;;;9.40;99.90;;;;;;5092797;28;20760;-74
2023/12/14 00:16:33;;;;;;;76.28;36.90;;;9.40;99.90;;;;;;5092571;28;20884;-74
2023/12/14 00:18:58;;;;;;;77.35;36.08;;;9.40;99.90;;;;;;5093169;28;20382;-75
2023/12/14 00:21:24;;;;;;;79.57;36.20;;;9.40;99.90;;;;;;5092682;28;20374;-75
2023/12/14 00:23:49;;;;;;;72.30;33.37;;;9.30;99.90;;;;;;5092515;28;20440;-73
2023/12/14 00:26:17;;;;;;;70.17;33.07;;;9.40;99.90;;;;;;5093064;28;20708;-75
2023/12/14 00:28:42;;;;;;;65.85;31.42;;;9.30;99.90;;;;;;5092648;28;20374;-74
2023/12/14 00:31:08;;;;;;;59.20;29.50;;;9.40;99.90;;;;;;5091970;28;20414;-74
2023/12/14 00:33:33;;;;;;;65.57;30.83;;;9.40;98.60;;;;;;5090332;28;20456;-73
2023/12/14 00:35:59;;;;;;;63.45;30.42;;;9.40;98.20;;;;;;5092601;28;20485;-73
2023/12/14 00:38:25;;;;;;;62.40;30.20;;;9.30;99.90;;;;;;5092653;28;20416;-74
2023/12/14 00:40:50;;;;;;;55.22;28.75;;;9.40;99.90;;;;;;5093334;28;20374;-75
2023/12/14 00:43:16;;;;;;;57.88;29.48;;;9.30;99.30;;;;;;5093375;28;20863;-73
2023/12/14 00:45:41;;;;;;;58.90;30.38;;;9.30;98.80;;;;;;5093749;28;20430;-72
2023/12/14 00:48:07;;;;;;;56.05;29.05;;;9.30;99.90;;;;;;5091747;28;20378;-74
2023/12/14 00:50:32;;;;;;;59.90;29.17;;;9.30;99.90;;;;;;5091982;28;20378;-74
2023/12/14 00:52:58;;;;;;;59.17;29.58;;;9.30;99.90;;;;;;5091643;28;20442;-72
2023/12/14 00:55:24;;;;;;;63.97;29.73;;;9.20;99.90;;;;;;5092290;28;20940;-74
2023/12/14 00:57:49;;;;;;;58.57;27.87;;;9.20;99.90;;;;;;5092120;28;20385;-74
2023/12/14 01:00:15;;;;;;;61.97;30.77;;;9.30;99.90;;;;;;5091597;28;20525;-72
2023/12/14 01:02:43;;;;;;;54.58;28.95;;;9.20;99.90;;;;;;5090293;28;20407;-74
2023/12/14 01:05:08;;;;;;;55.30;28.55;;;9.20;99.90;;;;;;5091116;28;20413;-74
2023/12/14 01:07:34;;;;;;;53.78;28.23;;;9.30;99.90;;;;;;5091386;28;20876;-73
2023/12/14 01:09:59;;;;;;;53.70;28.40;;;9.30;99.90;;;;;;5090544;28;20390;-73
2023/12/14 01:12:25;;;;;;;61.45;30.15;;;9.30;99.90;;;;;;5090786;28;20385;-75
2023/12/14 01:14:51;;;;;;;52.85;28.13;;;9.30;99.90;;;;;;5089634;28;20414;-74
2023/12/14 01:17:16;;;;;;;58.50;28.70;;;9.30;99.20;;;;;;5090802;28;20370;-73
2023/12/14 01:19:42;;;;;;;57.10;30.10;;;9.30;99.70;;;;;;5090946;28;20413;-74
2023/12/14 01:22:07;;;;;;;58.53;31.13;;;9.30;98.20;;;;;;5090382;28;20370;-74
2023/12/14 01:24:33;;;;;;;61.67;30.30;;;9.20;99.90;;;;;;5090738;28;20420;-74
2023/12/14 01:26:58;;;;;;;60.00;29.50;;;9.20;98.00;;;;;;5090597;28;20830;-73
2023/12/14 01:29:24;;;;;;;67.97;33.10;;;9.00;97.90;;;;;;5090916;28;20381;-73
2023/12/14 01:31:49;;;;;;;65.30;29.97;;;8.90;99.90;;;;;;5094539;28;20370;-74
2023/12/14 01:34:15;;;;;;;58.70;29.03;;;8.90;99.90;;;;;;5096448;28;20381;-74
2023/12/14 01:36:41;;;;;;;62.97;29.90;;;8.80;99.90;;;;;;5091370;28;20449;-73
2023/12/14 01:39:07;;;;;;;61.40;29.57;;;8.70;99.90;;;;;;5092218;28;20847;-73
2023/12/14 01:41:32;;;;;;;65.95;31.67;;;8.60;99.90;;;;;;5094987;28;20382;-73
2023/12/14 01:43:58;;;;;;;66.27;31.60;;;8.40;99.90;;;;;;5098523;28;20393;-74
2023/12/14 01:46:24;;;;;;;61.45;30.92;;;8.40;99.90;;;;;;5097687;28;20408;-74
2023/12/14 01:48:49;;;;;;;64.55;32.00;;;8.40;99.90;;;;;;5098494;28;20388;-74
2023/12/14 01:51:15;;;;;;;56.97;29.35;;;8.40;99.90;;;;;;5099204;28;20413;-74
2023/12/14 01:53:41;;;;;;;58.95;29.70;;;8.40;99.90;;;;;;5094538;28;20369;-74
2023/12/14 01:56:07;;;;;;;55.83;30.00;;;8.30;99.90;;;;;;5094859;28;20390;-73
2023/12/14 01:58:33;;;;;;;56.30;30.50;;;8.30;99.90;;;;;;5094238;28;20686;-74
2023/12/14 02:01:20;;;;;;;52.83;27.17;;;8.30;99.90;;;;;;5094691;28;20419;-73
2023/12/14 02:03:47;;;;;;;44.65;27.00;;;8.30;99.90;;;;;;5094687;28;20374;-74
2023/12/14 02:06:12;;;;;;;45.58;26.75;;;8.30;99.90;;;;;;5094422;28;20445;-73
2023/12/14 02:08:38;;;;;;;47.53;26.83;;;8.30;99.90;;;;;;5094271;28;20413;-74
2023/12/14 02:11:03;;;;;;;46.63;26.58;;;8.30;99.90;;;;;;5094201;28;20384;-74
2023/12/14 02:13:29;;;;;;;46.13;26.83;;;8.30;99.60;;;;;;5094225;28;20381;-72
2023/12/14 02:15:54;;;;;;;42.47;25.35;;;8.40;98.80;;;;;;5094882;28;20501;-73
2023/12/14 02:18:20;;;;;;;44.83;25.98;;;8.30;97.00;;;;;;5094262;28;20511;-75
2023/12/14 02:20:45;;;;;;;40.43;23.67;;;8.30;96.90;;;;;;5094160;28;20610;-75
2023/12/14 02:23:11;;;;;;;38.70;22.50;;;8.40;94.90;;;;;;5103115;22;20439;-70
2023/12/14 02:25:37;;;;;;;32.95;19.73;;;8.30;94.30;;;;;;5073845;28;20439;-70
2023/12/14 02:28:03;;;;;;;30.15;18.90;;;8.30;96.10;;;;;;5073809;28;20387;-71
2023/12/14 02:30:28;;;;;;;29.15;18.30;;;8.30;92.90;;;;;;5074041;28;20382;-71
2023/12/14 02:32:54;;;;;;;27.25;17.17;;;8.30;92.50;;;;;;5074010;28;20449;-72
2023/12/14 02:35:20;;;;;;;25.23;16.27;;;8.30;92.50;;;;;;5073692;28;20869;-72
2023/12/14 02:37:45;;;;;;;25.60;15.70;;;8.30;91.60;;;;;;5073922;28;20380;-71
2023/12/14 02:40:11;;;;;;;23.67;15.00;;;8.30;90.30;;;;;;5073584;28;20948;-71
2023/12/14 02:42:37;;;;;;;19.70;13.05;;;8.20;93.20;;;;;;5074031;28;20439;-71
2023/12/14 02:45:03;;;;;;;24.23;15.73;;;8.20;91.50;;;;;;5073342;28;20404;-72
2023/12/14 02:47:29;;;;;;;25.45;16.52;;;8.10;93.60;;;;;;5073807;28;20462;-71
2023/12/14 02:49:55;;;;;;;25.00;17.10;;;7.90;96.40;;;;;;5073666;28;20858;-70
2023/12/14 02:52:21;;;;;;;27.83;17.92;;;7.90;99.20;;;;;;5073418;28;20395;-71
2023/12/14 02:54:47;;;;;;;27.00;17.57;;;7.90;98.90;;;;;;5073252;28;20384;-71
2023/12/14 02:57:12;;;;;;;28.37;18.50;;;8.00;98.10;;;;;;5072123;28;20549;-70
2023/12/14 02:59:38;;;;;;;29.20;19.40;;;8.00;97.10;;;;;;5073285;28;20885;-71
2023/12/14 03:02:04;;;;;;;29.60;19.25;;;8.00;96.20;;;;;;5073454;28;20392;-72
2023/12/14 03:04:29;;;;;;;29.10;18.98;;;8.00;94.90;;;;;;5072941;28;20399;-71
2023/12/14 03:06:56;;;;;;;34.85;20.33;;;8.00;95.00;;;;;;5072733;28;20407;-71
2023/12/14 03:09:22;;;;;;;36.45;22.80;;;7.90;97.50;;;;;;5072755;28;20384;-71
2023/12/14 03:11:48;;;;;;;42.67;26.40;;;7.80;98.50;;;;;;5072908;28;20814;-71
2023/12/14 03:14:14;;;;;;;45.10;26.10;;;7.80;99.80;;;;;;5073556;28;20380;-72
2023/12/14 03:16:40;;;;;;;42.75;25.70;;;7.70;98.10;;;;;;5073208;28;20727;-72
2023/12/14 03:19:05;;;;;;;44.50;26.20;;;7.70;98.40;;;;;;5072819;28;20464;-71
2023/12/14 03:21:31;;;;;;;36.63;23.10;;;7.70;98.50;;;;;;5071322;28;20384;-71
2023/12/14 03:23:56;;;;;;;38.30;24.37;;;7.80;97.60;;;;;;5072379;28;20399;-72
2023/12/14 03:26:22;;;;;;;36.23;22.57;;;7.80;97.50;;;;;;5071351;28;20881;-70
2023/12/14 03:28:47;;;;;;;36.57;22.47;;;7.80;95.30;;;;;;5072496;28;20376;-70
2023/12/14 03:31:13;;;;;;;41.77;24.83;;;7.80;95.20;;;;;;5072866;28;20395;-71
2023/12/14 03:33:39;;;;;;;42.40;25.50;;;7.70;96.70;;;;;;5072688;28;20471;-71
2023/12/14 03:36:05;;;;;;;39.63;24.52;;;7.70;98.60;;;;;;5072437;28;20384;-71
2023/12/14 03:38:31;;;;;;;45.65;25.75;;;7.60;98.90;;;;;;5072179;28;20384;-69
2023/12/14 03:40:57;;;;;;;41.80;24.95;;;7.70;99.90;;;;;;5072445;28;20394;-70
2023/12/14 03:43:23;;;;;;;43.40;25.40;;;7.70;99.90;;;;;;5071998;28;20416;-70
2023/12/14 03:45:48;;;;;;;42.17;24.07;;;7.70;98.40;;;;;;5071819;28;20552;-71
2023/12/14 03:48:14;;;;;;;40.60;24.27;;;7.70;95.60;;;;;;5071700;28;20403;-71
2023/12/14 03:50:39;;;;;;;41.43;24.70;;;7.60;95.80;;;;;;5071859;28;20378;-70
2023/12/14 03:53:05;;;;;;;38.40;22.87;;;7.60;96.90;;;;;;5070269;28;21251;-71
2023/12/14 03:55:30;;;;;;;33.57;20.73;;;7.60;95.20;;;;;;5071790;28;20752;-71
2023/12/14 03:57:56;;;;;;;34.47;22.00;;;7.60;93.40;;;;;;5071543;28;20870;-71
2023/12/14 04:00:22;;;;;;;35.25;21.50;;;7.60;91.50;;;;;;5071723;28;20866;-71
2023/12/14 04:02:47;;;;;;;36.92;21.85;;;7.60;92.70;;;;;;5071475;28;20933;-71
2023/12/14 04:05:13;;;;;;;37.07;22.53;;;7.60;92.30;;;;;;5072100;28;20392;-71
2023/12/14 04:07:42;;;;;;;36.33;21.53;;;7.60;92.10;;;;;;5071774;28;20463;-71
2023/12/14 04:10:11;;;;;;;36.40;21.15;;;7.60;90.40;;;;;;5070619;28;20410;-71
2023/12/14 04:12:38;;;;;;;36.00;21.67;;;7.60;89.80;;;;;;5071465;28;20386;-71
2023/12/14 04:15:05;;;;;;;39.67;23.17;;;7.50;92.80;;;;;;5071244;28;20390;-71
2023/12/14 04:17:31;;;;;;;40.67;23.35;;;7.50;91.10;;;;;;5071560;28;20390;-71
2023/12/14 04:19:57;;;;;;;41.60;22.85;;;7.50;93.50;;;;;;5071281;28;20876;-70
2023/12/14 04:22:22;;;;;;;36.90;22.00;;;7.60;92.90;;;;;;5071319;28;20416;-71
2023/12/14 04:24:48;;;;;;;34.95;21.60;;;7.50;90.90;;;;;;5071070;28;20433;-71
2023/12/14 04:27:14;;;;;;;36.40;21.50;;;7.60;90.40;;;;;;5071080;28;20411;-71
2023/12/14 04:29:40;;;;;;;36.22;21.05;;;7.60;90.30;;;;;;5070978;28;20376;-71
2023/12/14 04:32:06;;;;;;;32.15;19.60;;;7.60;86.70;;;;;;5071320;28;20892;-71
2023/12/14 04:34:31;;;;;;;34.80;20.15;;;7.60;87.30;;;;;;5071135;28;20739;-70
2023/12/14 04:36:57;;;;;;;36.35;20.88;;;7.60;87.90;;;;;;5071400;28;20394;-70
2023/12/14 04:39:24;;;;;;;38.47;21.23;;;7.60;84.70;;;;;;5071550;28;20482;-71
2023/12/14 04:41:50;;;;;;;39.00;20.67;;;7.60;87.70;;;;;;5070995;28;20395;-71
2023/12/14 04:44:16;;;;;;;42.10;22.60;;;7.60;86.80;;;;;;5063286;28;20396;-70
2023/12/14 04:46:42;;;;;;;48.90;26.67;;;7.60;87.10;;;;;;5056658;28;20482;-71
2023/12/14 04:49:08;;;;;;;49.00;25.58;;;7.60;87.30;;;;;;5067992;28;20475;-71
2023/12/14 04:51:33;;;;;;;47.67;26.13;;;7.70;88.30;;;;;;5061592;28;20403;-71
2023/12/14 04:53:59;;;;;;;47.65;25.70;;;7.50;89.10;;;;;;5055357;28;20421;-71
2023/12/14 04:56:24;;;;;;;52.83;25.95;;;7.60;89.70;;;;;;5070462;28;20392;-71
2023/12/14 04:58:50;;;;;;;58.55;29.00;;;7.50;89.70;;;;;;5069958;28;20408;-72
2023/12/14 05:01:15;;;;;;;58.08;29.77;;;7.40;93.30;;;;;;5070435;28;20386;-74
2023/12/14 05:03:41;;;;;;;58.45;28.98;;;7.40;96.60;;;;;;5070149;28;20400;-72
2023/12/14 05:06:07;;;;;;;60.72;28.65;;;7.40;96.50;;;;;;5070351;28;20408;-74
2023/12/14 05:08:32;;;;;;;54.60;29.77;;;7.50;94.90;;;;;;5067718;28;20391;-72
2023/12/14 05:10:58;;;;;;;57.90;29.70;;;7.40;96.40;;;;;;5069052;28;20392;-72
2023/12/14 05:13:24;;;;;;;56.92;29.60;;;7.40;96.40;;;;;;5050954;28;20394;-72
2023/12/14 05:15:51;;;;;;;50.50;27.20;;;7.50;96.40;;;;;;5050595;28;20393;-72
2023/12/14 05:18:17;;;;;;;55.05;28.88;;;7.40;95.90;;;;;;5050610;28;20480;-72
2023/12/14 05:20:43;;;;;;;58.65;29.10;;;7.30;99.70;;;;;;5050367;28;20503;-72
2023/12/14 05:23:08;;;;;;;52.58;26.15;;;7.30;98.50;;;;;;5049833;28;20404;-72
2023/12/14 05:25:34;;;;;;;44.80;25.00;;;7.30;97.60;;;;;;5050822;28;20401;-72
2023/12/14 05:27:59;;;;;;;51.07;26.40;;;7.30;98.40;;;;;;5051367;28;20442;-72
2023/12/14 05:30:25;;;;;;;47.70;25.80;;;7.30;98.90;;;;;;5050067;28;20717;-72
2023/12/14 05:32:50;;;;;;;47.67;26.40;;;7.30;97.70;;;;;;5050060;28;20389;-72
2023/12/14 05:35:16;;;;;;;54.97;26.77;;;7.30;98.50;;;;;;5050256;28;20848;-72
2023/12/14 05:37:42;;;;;;;48.27;26.00;;;7.20;98.90;;;;;;5050204;28;20385;-73
2023/12/14 05:40:09;;;;;;;47.47;25.83;;;7.20;97.40;;;;;;5050122;28;20542;-72
2023/12/14 05:42:34;;;;;;;47.30;26.10;;;7.20;95.70;;;;;;5050454;28;20381;-72
2023/12/14 05:45:00;;;;;;;45.58;25.55;;;7.20;98.00;;;;;;5049807;28;20957;-72
2023/12/14 05:47:26;;;;;;;48.72;26.10;;;7.30;97.70;;;;;;5049858;28;20920;-71
2023/12/14 05:49:52;;;;;;;47.08;25.92;;;7.30;99.40;;;;;;5049484;28;20421;-71
2023/12/14 05:52:18;;;;;;;45.50;24.73;;;7.30;95.10;;;;;;5049631;28;20424;-71
2023/12/14 05:54:43;;;;;;;41.60;23.25;;;7.30;97.50;;;;;;5049535;28;20507;-71
2023/12/14 05:57:09;;;;;;;46.00;25.70;;;7.30;91.50;;;;;;5050100;28;20382;-71
2023/12/14 05:59:34;;;;;;;54.17;28.63;;;7.40;94.20;;;;;;5050109;28;20740;-71
2023/12/14 06:02:00;;;;;;;54.42;27.42;;;7.30;93.10;;;;;;5050014;28;20382;-72
2023/12/14 06:04:27;;;;;;;49.28;28.25;;;7.20;93.20;;;;;;5050111;28;20393;-72
2023/12/14 06:06:53;;;;;;;50.90;28.47;;;7.10;95.30;;;;;;5049749;28;20408;-72
2023/12/14 06:09:22;;;;;;;52.35;29.02;;;7.10;97.50;;;;;;5050270;28;20847;-73
2023/12/14 06:11:48;;;;;;;53.67;29.63;;;7.00;98.80;;;;;;5049986;28;20473;-72
2023/12/14 06:14:13;;;;;;;52.75;27.58;;;7.00;99.90;;;;;;5048543;28;20712;-72
2023/12/14 06:16:39;;;;;;;53.70;28.45;;;7.00;99.70;;;;;;5049642;28;20488;-72
2023/12/14 06:19:04;;;;;;;60.28;30.48;;;6.90;99.90;;;;;;5051815;28;20937;-73
2023/12/14 06:21:30;;;;;;;49.90;27.20;;;6.90;99.90;;;;;;5049759;28;20764;-72
2023/12/14 06:23:57;;;;;;;52.83;27.38;;;6.90;99.90;;;;;;5049214;28;20397;-72
2023/12/14 06:26:23;;;;;;;49.13;25.65;;;6.90;99.90;;;;;;5049604;28;20428;-73
2023/12/14 06:28:48;;;;;;;44.63;25.23;;;6.80;99.90;;;;;;5049304;28;20452;-72
2023/12/14 06:31:15;;;;;;;44.60;24.63;;;6.90;99.00;;;;;;5049288;28;20784;-72
2023/12/14 06:33:41;;;;;;;42.80;25.65;;;6.90;97.30;;;;;;5050593;28;20394;-72
2023/12/14 06:36:08;;;;;;;41.05;25.48;;;6.90;96.50;;;;;;5051852;28;20397;-72
2023/12/14 06:38:33;;;;;;;41.70;24.92;;;7.00;96.90;;;;;;5052709;28;20389;-72
2023/12/14 06:40:59;;;;;;;40.23;24.10;;;7.00;92.80;;;;;;5052748;28;20520;-72
2023/12/14 06:43:25;;;;;;;36.08;22.48;;;7.00;91.90;;;;;;5052799;28;20855;-72
2023/12/14 06:45:50;;;;;;;38.50;24.02;;;7.00;89.80;;;;;;5052826;28;20474;-72
2023/12/14 06:48:16;;;;;;;40.15;23.95;;;7.00;91.10;;;;;;5052530;28;20393;-72
2023/12/14 06:50:41;;;;;;;39.87;24.10;;;7.10;91.30;;;;;;5052933;28;20385;-72
2023/12/14 06:53:07;;;;;;;33.77;21.80;;;7.20;90.20;;;;;;5053263;28;20401;-72
2023/12/14 06:55:32;;;;;;;46.13;26.17;;;7.30;89.30;;;;;;5053199;28;20385;-72
2023/12/14 06:57:58;;;;;;;43.85;26.70;;;7.30;88.10;;;;;;5053284;28;20389;-73
2023/12/14 07:00:24;;;;;;;45.35;26.85;;;7.20;85.70;;;;;;5053535;28;20385;-71
2023/12/14 07:02:49;;;;;;;43.80;27.57;;;7.20;87.70;;;;;;5053299;28;20447;-72
2023/12/14 07:05:15;;;;;;;46.73;28.47;;;7.30;86.90;;;;;;5053229;28;20411;-71
2023/12/14 07:07:41;;;;;;;43.27;26.97;;;7.30;86.40;;;;;;5053434;28;20392;-72
2023/12/14 07:10:07;;;;;;;42.85;26.42;;;7.20;85.90;;;;;;5053529;28;20379;-72
2023/12/14 07:12:32;;;;;;;55.03;31.00;;;7.10;85.50;;;;;;5053485;28;20431;-71
2023/12/14 07:14:58;;;;;;;63.20;35.37;;;7.00;88.40;;;;;;5053395;28;20381;-73
2023/12/14 07:17:23;;;;;;;66.07;37.60;;;7.00;90.70;;;;;;5053043;28;20805;-71
2023/12/14 07:19:51;;;;;;;72.07;38.03;;;7.00;91.40;;;;;;5052141;28;20394;-72
2023/12/14 07:22:16;;;;;;;70.90;38.53;;;7.10;90.00;;;;;;5052696;28;20747;-73
2023/12/14 07:24:42;;;;;;;77.90;41.40;;;7.10;89.80;;;;;;5052360;28;20393;-72
2023/12/14 07:27:07;;;;;;;78.37;41.10;;;7.00;89.20;;;;;;5052895;28;20444;-72
2023/12/14 07:29:33;;;;;;;76.47;40.00;;;7.00;91.50;;;;;;5052477;28;20405;-72
2023/12/14 07:31:58;;;;;;;75.63;38.23;;;7.00;91.00;;;;;;5052668;28;20468;-72
2023/12/14 07:34:24;;;;;;;70.60;37.97;;;7.00;89.70;;;;;;5052200;28;20811;-72
2023/12/14 07:36:50;;;;;;;63.92;35.78;;;7.00;90.00;;;;;;5052267;28;20396;-71
2023/12/14 07:39:15;;;;;;;66.80;35.38;;;7.00;88.80;;;;;;5052283;28;20412;-71
2023/12/14 07:41:41;;;;;;;66.25;35.38;;;6.90;87.60;;;;;;5052070;28;20464;-71
2023/12/14 07:44:07;;;;;;;64.95;36.25;;;6.90;90.20;;;;;;5051346;28;20880;-71
2023/12/14 07:46:32;;;;;;;61.63;34.50;;;7.00;88.90;;;;;;5051124;28;20516;-72
2023/12/14 07:48:58;;;;;;;67.00;37.17;;;7.00;88.00;;;;;;5051299;28;20404;-72
2023/12/14 07:51:23;;;;;;;73.60;39.27;;;6.90;87.30;;;;;;5051671;28;20419;-72
2023/12/14 07:53:49;;;;;;;69.13;38.40;;;6.90;87.20;;;;;;5051651;28;20417;-72
2023/12/14 07:56:15;;;;;;;71.53;39.03;;;6.80;89.10;;;;;;5052048;28;21038;-72
2023/12/14 07:58:40;;;;;;;71.40;38.20;;;6.80;89.10;;;;;;5053589;28;20438;-71
2023/12/14 08:01:06;;;;;;;65.07;37.97;;;6.80;86.60;;;;;;5053057;28;20389;-71
2023/12/14 08:03:31;;;;;;;70.20;36.90;;;6.80;87.40;;;;;;5053243;28;20385;-72
2023/12/14 08:05:57;;;;;;;65.80;36.97;;;6.70;86.00;;;;;;5052571;28;20405;-72
2023/12/14 08:08:24;;;;;;;68.27;37.20;;;6.70;86.70;;;;;;5053255;28;20386;-72
2023/12/14 08:10:49;;;;;;;63.85;37.40;;;6.70;87.00;;;;;;5052987;28;20384;-71
2023/12/14 08:13:15;;;;;;;66.90;37.87;;;6.80;88.00;;;;;;5050242;28;20390;-72
2023/12/14 08:15:40;;;;;;;66.18;38.05;;;6.90;87.40;;;;;;5051623;28;20408;-72
2023/12/14 08:18:07;;;;;;;69.60;38.05;;;6.90;86.80;;;;;;5052001;28;20451;-71
2023/12/14 08:20:33;;;;;;;69.80;39.25;;;6.80;82.70;;;;;;5055768;28;20385;-72
2023/12/14 08:25:32;;;;;;;70.97;39.25;;;6.90;86.10;;;;;;5055815;28;20450;-75
2023/12/14 08:27:57;;;;;;;75.50;41.35;;;6.90;83.50;;;;;;5057110;28;20392;-74
2023/12/14 08:30:23;;;;;;;73.97;41.42;;;6.80;84.70;;;;;;5056194;28;20450;-73
2023/12/14 08:32:49;;;;;;;73.17;40.33;;;6.90;86.40;;;;;;5036325;28;20793;-76
2023/12/14 08:35:18;;;;;;;73.57;41.23;;;6.90;85.10;;;;;;5055049;28;20386;-77
2023/12/14 08:37:43;;;;;;;75.63;41.67;;;6.80;84.60;;;;;;5055227;28;20435;-76
2023/12/14 08:40:09;;;;;;;80.32;43.55;;;6.80;86.30;;;;;;5036225;28;20385;-74
2023/12/14 08:42:35;;;;;;;77.40;43.80;;;6.80;85.90;;;;;;5056857;28;20386;-74
2023/12/14 08:45:01;;;;;;;84.83;45.80;;;6.70;86.70;;;;;;5059062;28;20411;-76
2023/12/14 08:47:26;;;;;;;90.27;45.37;;;6.70;88.30;;;;;;5056400;28;20496;-76
2023/12/14 08:49:52;;;;;;;101.70;51.50;;;6.70;88.90;;;;;;5037282;28;20539;-77
2023/12/14 08:52:19;;;;;;;87.10;45.00;;;6.70;88.80;;;;;;5054705;28;20377;-75
2023/12/14 08:54:44;;;;;;;75.18;42.33;;;6.70;88.20;;;;;;5055205;28;20371;-75
2023/12/14 08:57:10;;;;;;;74.22;41.80;;;6.70;86.00;;;;;;5057739;28;20439;-75
2023/12/14 08:59:36;;;;;;;74.35;40.95;;;6.70;86.90;;;;;;5054729;28;20468;-74
2023/12/14 09:02:02;;;;;;;72.30;40.38;;;6.70;85.70;;;;;;5054566;28;20424;-75
2023/12/14 09:04:27;;;;;;;72.88;40.17;;;6.70;85.20;;;;;;5054021;28;20439;-75
2023/12/14 09:06:53;;;;;;;68.00;38.85;;;6.80;83.50;;;;;;5054127;28;20903;-75
2023/12/14 09:09:19;;;;;;;64.95;37.88;;;6.80;81.80;;;;;;5054623;28;20385;-75
2023/12/14 09:11:45;;;;;;;66.73;38.40;;;6.80;81.50;;;;;;5054568;28;20440;-75
2023/12/14 09:14:10;;;;;;;64.00;37.53;;;6.90;82.10;;;;;;5053944;28;20381;-75
2023/12/14 09:16:36;;;;;;;63.95;38.25;;;6.90;79.20;;;;;;5055073;28;20538;-76
2023/12/14 09:19:01;;;;;;;64.50;37.47;;;6.80;79.40;;;;;;5054127;28;20607;-75
2023/12/14 09:21:27;;;;;;;60.88;37.25;;;6.80;78.50;;;;;;5054155;28;20751;-76
2023/12/14 09:23:53;;;;;;;61.60;38.17;;;6.80;77.10;;;;;;5053516;28;20491;-74
2023/12/14 09:26:19;;;;;;;72.78;42.58;;;6.80;77.90;;;;;;5053444;28;20405;-76
2023/12/14 09:28:45;;;;;;;83.10;46.20;;;6.70;79.70;;;;;;5054402;28;20404;-74
2023/12/14 09:31:11;;;;;;;82.65;44.50;;;6.70;80.80;;;;;;5035859;28;20485;-74
2023/12/14 09:33:36;;;;;;;72.88;42.90;;;6.70;82.60;;;;;;5035943;28;20755;-74
2023/12/14 09:36:02;;;;;;;73.23;41.83;;;6.70;82.60;;;;;;5052928;28;20393;-75
2023/12/14 09:38:28;;;;;;;69.28;39.55;;;6.80;84.60;;;;;;5052650;28;20431;-74
2023/12/14 09:40:53;;;;;;;70.37;42.20;;;6.90;78.60;;;;;;5053067;28;20389;-75
2023/12/14 09:43:20;;;;;;;69.37;39.63;;;6.80;79.20;;;;;;5054529;28;20420;-77
2023/12/14 09:45:48;;;;;;;78.50;43.07;;;6.90;78.50;;;;;;5055700;28;20409;-74
2023/12/14 09:48:15;;;;;;;68.47;40.53;;;6.80;82.00;;;;;;5036398;28;20396;-75
2023/12/14 09:50:42;;;;;;;66.00;38.72;;;7.00;78.60;;;;;;5053147;28;20404;-76
2023/12/14 09:53:08;;;;;;;62.15;37.35;;;7.00;75.10;;;;;;5054033;28;20405;-76
2023/12/14 09:55:33;;;;;;;64.85;38.38;;;7.10;76.50;;;;;;5053697;28;20404;-75
2023/12/14 09:58:00;;;;;;;64.97;36.33;;;7.20;73.80;;;;;;5058297;28;20425;-76
2023/12/14 10:00:39;;;;;;;58.53;34.70;;;7.20;71.20;;;;;;5054184;28;20382;-77
2023/12/14 10:03:26;;;;;;;57.40;35.40;;;7.30;70.50;;;;;;5054777;28;20409;-76
2023/12/14 10:05:53;;;;;;;57.63;36.00;;;7.20;70.00;;;;;;5053538;28;20442;-76
2023/12/14 10:08:19;;;;;;;61.83;36.57;;;7.10;72.10;;;;;;5053924;28;20517;-76
2023/12/14 10:10:48;;;;;;;56.28;36.08;;;7.00;75.40;;;;;;5057508;28;20377;-74
2023/12/14 10:13:14;;;;;;;56.15;33.72;;;7.20;74.00;;;;;;5057489;28;20453;-75
2023/12/14 10:15:41;;;;;;;55.63;32.92;;;7.20;73.90;;;;;;5056633;28;20408;-76
2023/12/14 10:18:07;;;;;;;55.33;35.00;;;7.20;67.60;;;;;;5058264;28;20405;-77
2023/12/14 10:20:32;;;;;;;57.20;34.70;;;7.00;68.60;;;;;;5058582;28;20389;-76
2023/12/14 10:22:58;;;;;;;61.97;35.97;;;6.80;72.50;;;;;;5057967;28;20389;-75
2023/12/14 10:25:23;;;;;;;56.77;34.67;;;6.80;74.80;;;;;;5058205;28;20412;-75
2023/12/14 10:27:52;;;;;;;57.43;36.10;;;6.80;70.80;;;;;;5059140;28;20392;-75
2023/12/14 10:30:19;;;;;;;58.15;35.55;;;6.70;72.40;;;;;;5059237;28;20421;-77
2023/12/14 10:32:49;;;;;;;62.80;35.92;;;6.70;73.60;;;;;;5058659;28;20377;-75
2023/12/14 10:35:16;;;;;;;53.63;32.72;;;6.80;73.50;;;;;;5058534;28;20447;-75
2023/12/14 10:37:43;;;;;;;54.45;32.28;;;6.80;71.10;;;;;;5058075;28;20389;-76
2023/12/14 10:40:13;;;;;;;48.63;30.65;;;6.90;70.70;;;;;;5056656;28;20437;-74
2023/12/14 10:42:43;;;;;;;49.05;30.73;;;6.90;69.40;;;;;;5057708;28;20383;-75
2023/12/14 10:45:12;;;;;;;47.15;29.50;;;6.90;70.40;;;;;;5057298;28;20371;-76
2023/12/14 10:47:42;;;;;;;48.60;31.27;;;6.90;68.70;;;;;;5058557;28;20386;-74
2023/12/14 10:50:11;;;;;;;45.55;28.75;;;6.90;70.70;;;;;;5058919;28;20730;-76
2023/12/14 10:52:41;;;;;;;49.53;30.80;;;6.90;68.30;;;;;;5059955;28;20403;-75
2023/12/14 10:55:15;;;;;;;46.58;29.10;;;7.00;68.20;;;;;;5058804;28;20389;-76
2023/12/14 10:57:41;;;;;;;44.10;28.80;;;7.10;66.90;;;;;;5067780;28;20377;-77
2023/12/14 11:00:08;;;;;;;42.45;28.13;;;7.10;68.50;;;;;;5067697;28;20954;-76
2023/12/14 11:02:42;;;;;;;47.10;29.17;;;7.10;69.10;;;;;;5068286;28;20457;-76
2023/12/14 11:05:09;;;;;;;41.33;26.95;;;7.10;71.30;;;;;;5065599;28;20391;-75
2023/12/14 11:07:45;;;;;;;34.73;23.93;;;7.20;69.10;;;;;;5051336;28;20469;-75
2023/12/14 11:10:11;;;;;;;33.83;23.48;;;7.10;65.90;;;;;;5046330;28;20785;-77
2023/12/14 11:12:37;;;;;;;40.60;24.42;;;6.90;69.20;;;;;;5066359;28;20416;-74
2023/12/14 11:15:06;;;;;;;42.35;24.80;;;6.90;71.00;;;;;;5063465;28;20899;-75
2023/12/14 11:17:34;;;;;;;43.97;25.75;;;6.80;71.40;;;;;;5062434;28;20387;-75
2023/12/14 11:20:24;;;;;;;42.75;25.02;;;6.80;74.20;;;;;;5062469;28;20378;-74
2023/12/14 11:22:51;;;;;;;43.72;25.08;;;6.90;74.20;;;;;;5062626;28;20484;-74
2023/12/14 11:25:16;;;;;;;43.25;25.67;;;7.00;73.10;;;;;;5063657;28;20419;-75
2023/12/14 11:27:44;;;;;;;44.28;24.42;;;7.00;74.60;;;;;;5064544;28;20872;-75
2023/12/14 11:30:11;;;;;;;51.70;26.70;;;6.90;71.30;;;;;;5047333;28;20386;-75
2023/12/14 11:32:37;;;;;;;42.63;24.50;;;6.80;74.10;;;;;;5061946;28;20408;-76
2023/12/14 11:35:03;;;;;;;46.70;25.20;;;6.90;74.30;;;;;;5062742;28;20472;-75
2023/12/14 11:37:29;;;;;;;44.10;26.07;;;7.00;73.90;;;;;;5062844;28;20409;-75
2023/12/14 11:39:54;;;;;;;43.70;26.55;;;7.10;72.30;;;;;;5063517;28;20466;-74
2023/12/14 11:42:20;;;;;;;42.72;25.45;;;7.10;72.00;;;;;;5063506;28;20381;-75
2023/12/14 11:44:45;;;;;;;38.88;25.55;;;7.10;73.80;;;;;;5063295;28;20397;-75
2023/12/14 11:47:11;;;;;;;46.00;26.17;;;7.00;75.80;;;;;;5062717;28;20417;-76
2023/12/14 11:49:37;;;;;;;39.50;25.10;;;7.00;78.30;;;;;;5043848;28;20393;-76
2023/12/14 11:52:05;;;;;;;33.58;22.15;;;6.80;76.90;;;;;;5060825;28;20872;-75
2023/12/14 11:54:31;;;;;;;33.85;22.15;;;6.70;78.90;;;;;;5061089;28;20425;-75
2023/12/14 11:56:57;;;;;;;35.37;23.70;;;6.70;79.60;;;;;;5062109;28;20382;-74
2023/12/14 11:59:23;;;;;;;37.77;23.30;;;6.60;81.70;;;;;;5065467;28;20385;-74
2023/12/14 12:01:58;;;;;;;34.97;23.20;;;6.70;83.70;;;;;;5060689;28;20408;-75
2023/12/14 12:04:24;;;;;;;33.20;22.20;;;6.70;78.40;;;;;;5057790;28;20386;-75
2023/12/14 12:06:58;;;;;;;32.95;21.23;;;6.80;80.00;;;;;;5055824;28;20424;-76
2023/12/14 12:09:41;;;;;;;31.92;20.75;;;6.70;78.20;;;;;;5052774;28;20412;-74
2023/12/14 12:12:12;;;;;;;34.33;20.75;;;6.70;76.30;;;;;;5053059;28;20378;-74
2023/12/14 12:14:39;;;;;;;30.25;19.02;;;6.70;77.90;;;;;;5052541;28;20384;-73
2023/12/14 12:17:05;;;;;;;34.50;20.10;;;6.70;77.40;;;;;;5052763;28;20816;-74
2023/12/14 12:19:36;;;;;;;27.05;17.83;;;6.90;76.70;;;;;;5052107;28;20411;-75
2023/12/14 12:22:02;;;;;;;26.15;18.15;;;6.90;73.40;;;;;;5033528;28;20770;-74
2023/12/14 12:24:28;;;;;;;24.20;16.70;;;6.90;73.10;;;;;;5051507;28;20451;-74
2023/12/14 12:26:54;;;;;;;23.40;15.70;;;6.90;70.70;;;;;;5052150;28;20891;-74
2023/12/14 12:29:20;;;;;;;24.50;15.13;;;6.70;73.20;;;;;;5051476;28;20380;-75
2023/12/14 12:31:46;;;;;;;21.60;15.00;;;6.60;72.00;;;;;;5051453;28;20378;-75
2023/12/14 12:34:12;;;;;;;25.98;15.27;;;6.70;73.20;;;;;;5051398;28;20396;-75